Portada
METAR-TAF:

METAR-TAF

Aeroports :

Koror, Babeldaob, Palau

latitud: 07-22N, longitud: 134-32E, altitud: 54 m

Observació

L'informe es va fer fa 31 minuts, a les 10:50 UTC
Vent 4 kt del Est/Nord-Est
Temperatura 27°C
Humitat 74%
Pressió 1010 hPa
Visibilitat: 24.1 km
Núvols disperses a una alçada de 1600 ft
Núvols disperses a una alçada de 12000 ft
Cel ennuvolat a una alçada de 30000 ft

METAR: PTRO 201050Z 06004KT 15SM SCT016 SCT120 BKN300 27/22 A2983

Hora: 20:21 (11:21 UTC)

Pronòstic

L'informe es va fer fa 5 hores i 50 minuts, a les 05:31 UTC
Pronòstic vàlid del 20 a les 06 UTC al 21 a les 06 UTC
Vent 10 kt del Est
Visibilitat: 10 km
Núvols disperses a una alçada de 1800 ft
Cel ennuvolat a una alçada de 12000 ft

TAF: PTRO 200531Z 2006/2106 08010KT P6SM SCT018 BKN120

Observacions i pronòstics meteorològics de més de 4000 aeroports (METAR i TAF).

Les estacions disponibles són els punts grocs i vermells al mapa.

Posi el ratolí al punt desitjat per veure el nom de l'estació.

Feu clic per veure les observacions i els pronòstics meteorològics.

Per canviar el mapa: feu clic els botons verds amb una creu de color negre per apropar; al botó verd amb un guió per allunyar la imatge; o en les fletxes verdes per a mapes adjacents.


METAR-TAF: